Time;durP1;ratioP1;P1;durP2;ratioP2;P2;SDS_P1;SDS_P2;PMS_P1;PMS_P2;Temp;Humidity;BMP_temperature;BMP_pressure;BME280_temperature;BME280_humidity;BME280_pressure;Samples;Min_cycle;Max_cycle;Signal;HPM_P1;HPM_P2
2023/08/08 00:01:24;;;;;;;;;;;;;;;15.11;47.40;100332.88;4896938;28;98598;-69
2023/08/08 00:03:51;;;;;;;;;;;;;;;15.08;47.64;100328.03;4885707;28;98348;-79
2023/08/08 00:06:18;;;;;;;;;;;;;;;15.07;47.33;100331.88;4896892;28;98063;-78
2023/08/08 00:08:45;;;;;;;;;;;;;;;15.06;47.26;100324.84;4919817;28;98194;-79
2023/08/08 00:11:14;;;;;;;;;;;;;;;15.05;47.42;100321.31;4876598;28;98314;-69
2023/08/08 00:13:44;;;;;;;;;;;;;;;15.04;47.30;100327.03;4903551;28;97855;-74
2023/08/08 00:16:10;;;;;;;;;;;;;;;15.02;47.49;100316.50;4890224;28;100198;-69
2023/08/08 00:18:38;;;;;;;;;;;;;;;15.02;47.29;100321.13;4904035;28;98101;-74
2023/08/08 00:21:05;;;;;;;;;;;;;;;15.00;47.17;100323.31;4870358;28;98129;-69
2023/08/08 00:23:31;;;;;;;;;;;;;;;14.98;47.49;100326.34;4908893;28;98198;-79
2023/08/08 00:25:58;;;;;;;;;;;;;;;14.96;47.45;100323.91;4879381;28;97960;-79
2023/08/08 00:28:24;;;;;;;;;;;;;;;14.97;47.26;100332.84;4909490;28;98415;-69
2023/08/08 00:30:51;;;;;;;;;;;;;;;14.97;47.56;100335.56;4925628;28;97996;-78
2023/08/08 00:33:18;;;;;;;;;;;;;;;14.94;47.46;100334.28;4905594;28;98416;-69
2023/08/08 00:35:47;;;;;;;;;;;;;;;14.95;47.44;100335.06;4923316;28;98538;-78
2023/08/08 00:38:14;;;;;;;;;;;;;;;14.93;47.71;100337.25;4894408;28;98508;-78
2023/08/08 00:40:41;;;;;;;;;;;;;;;14.91;47.61;100337.56;4925691;28;98450;-78
2023/08/08 00:43:08;;;;;;;;;;;;;;;14.90;47.41;100333.25;4916702;28;98068;-79
2023/08/08 00:45:35;;;;;;;;;;;;;;;14.88;47.63;100335.47;4916244;28;97987;-78
2023/08/08 00:48:02;;;;;;;;;;;;;;;14.85;47.33;100332.53;4867143;28;98008;-79
2023/08/08 00:50:29;;;;;;;;;;;;;;;14.82;47.65;100339.38;4904214;28;100578;-69
2023/08/08 00:52:58;;;;;;;;;;;;;;;14.79;47.45;100339.97;4910297;28;98350;-79
2023/08/08 00:55:26;;;;;;;;;;;;;;;14.78;47.44;100337.56;4903282;28;98104;-69
2023/08/08 00:57:53;;;;;;;;;;;;;;;14.78;47.24;100340.28;4894595;28;98259;-77
2023/08/08 01:00:20;;;;;;;;;;;;;;;14.76;47.52;100342.47;4915090;28;98341;-78
2023/08/08 01:02:47;;;;;;;;;;;;;;;14.75;47.62;100340.88;4921534;28;99504;-69
2023/08/08 01:05:14;;;;;;;;;;;;;;;14.71;47.70;100344.16;4911472;28;98048;-78
2023/08/08 01:07:59;;;;;;;;;;;;;;;14.69;47.53;100334.72;4878031;28;98742;-79
2023/08/08 01:10:28;;;;;;;;;;;;;;;14.68;47.61;100333.09;4904916;28;98260;-69
2023/08/08 01:13:00;;;;;;;;;;;;;;;14.68;47.55;100335.81;4904703;28;98004;-73
2023/08/08 01:15:27;;;;;;;;;;;;;;;14.66;47.31;100328.00;4886917;28;98287;-68
2023/08/08 01:17:54;;;;;;;;;;;;;;;14.64;47.37;100327.47;4907620;28;98029;-69
2023/08/08 01:20:22;;;;;;;;;;;;;;;14.60;47.49;100323.75;4898860;28;97955;-78
2023/08/08 01:23:01;;;;;;;;;;;;;;;14.58;47.71;100317.81;4895399;28;98095;-69
2023/08/08 01:25:30;;;;;;;;;;;;;;;14.56;47.73;100313.78;4898586;28;98231;-77
2023/08/08 01:27:58;;;;;;;;;;;;;;;14.54;47.41;100318.69;4917104;28;98573;-78
2023/08/08 01:30:24;;;;;;;;;;;;;;;14.49;47.38;100320.38;4918679;28;99008;-69
2023/08/08 01:32:51;;;;;;;;;;;;;;;14.46;47.57;100320.97;4903678;28;98465;-78
2023/08/08 01:35:18;;;;;;;;;;;;;;;14.44;47.46;100314.22;4896061;28;97964;-75
2023/08/08 01:38:00;;;;;;;;;;;;;;;14.42;47.45;100311.81;4870740;28;98208;-69
2023/08/08 01:40:27;;;;;;;;;;;;;;;14.40;47.44;100310.50;4911836;28;98378;-69
2023/08/08 01:42:54;;;;;;;;;;;;;;;14.39;47.48;100314.31;4894826;28;98006;-69
2023/08/08 01:45:20;;;;;;;;;;;;;;;14.37;47.67;100314.59;4891650;28;98173;-78
2023/08/08 01:47:50;;;;;;;;;;;;;;;14.36;47.72;100315.69;4881998;28;98706;-69
2023/08/08 01:50:17;;;;;;;;;;;;;;;14.34;47.41;100325.22;4882732;28;99507;-69
2023/08/08 01:52:43;;;;;;;;;;;;;;;14.31;47.56;100323.13;4881692;28;98635;-78
2023/08/08 01:55:12;;;;;;;;;;;;;;;14.29;47.52;100311.75;4865448;28;98512;-78
2023/08/08 01:57:39;;;;;;;;;;;;;;;14.27;47.80;100320.19;4894762;28;98552;-78
2023/08/08 02:00:06;;;;;;;;;;;;;;;14.25;47.45;100325.91;4898732;28;99386;-69
2023/08/08 02:02:35;;;;;;;;;;;;;;;14.24;47.81;100324.28;4890367;28;97876;-69
2023/08/08 02:05:02;;;;;;;;;;;;;;;14.23;47.81;100324.59;4902942;28;98257;-69
2023/08/08 02:07:31;;;;;;;;;;;;;;;14.22;47.64;100321.06;4923472;28;98989;-78
2023/08/08 02:09:57;;;;;;;;;;;;;;;14.21;47.48;100324.06;4903072;28;98973;-71
2023/08/08 02:12:25;;;;;;;;;;;;;;;14.21;47.68;100324.88;4891814;28;98477;-69
2023/08/08 02:14:52;;;;;;;;;;;;;;;14.20;47.66;100323.28;4914170;28;98311;-69
2023/08/08 02:17:22;;;;;;;;;;;;;;;14.19;47.79;100326.28;4903920;28;98189;-69
2023/08/08 02:19:49;;;;;;;;;;;;;;;14.16;47.81;100316.84;4899541;28;101582;-77
2023/08/08 02:22:16;;;;;;;;;;;;;;;14.16;47.47;100318.75;4884525;28;98032;-69
2023/08/08 02:24:42;;;;;;;;;;;;;;;14.15;47.46;100312.50;4892705;28;99662;-69
2023/08/08 02:27:08;;;;;;;;;;;;;;;14.14;47.52;100310.09;4882130;28;98981;-69
2023/08/08 02:29:35;;;;;;;;;;;;;;;14.13;47.61;100305.78;4902767;28;98246;-69
2023/08/08 02:32:01;;;;;;;;;;;;;;;14.11;47.60;100307.94;4864877;28;98492;-78
2023/08/08 02:34:27;;;;;;;;;;;;;;;14.09;47.86;100315.59;4892535;28;98347;-69
2023/08/08 02:36:54;;;;;;;;;;;;;;;14.09;47.79;100312.88;4900325;28;98486;-78
2023/08/08 02:39:20;;;;;;;;;;;;;;;14.09;47.44;100315.59;4905492;28;98063;-77
2023/08/08 02:41:47;;;;;;;;;;;;;;;14.06;47.69;100316.16;4901501;28;98442;-77
2023/08/08 02:44:13;;;;;;;;;;;;;;;14.04;47.77;100304.84;4896734;28;98119;-69
2023/08/08 02:46:40;;;;;;;;;;;;;;;14.02;47.47;100305.09;4920424;28;98268;-78
2023/08/08 02:49:07;;;;;;;;;;;;;;;13.99;47.68;100314.66;4890886;28;98392;-69
2023/08/08 02:51:33;;;;;;;;;;;;;;;13.96;47.74;100303.59;4861089;28;98320;-78
2023/08/08 02:54:00;;;;;;;;;;;;;;;13.95;47.69;100316.34;4902363;28;98899;-69
2023/08/08 02:56:26;;;;;;;;;;;;;;;13.93;47.90;100317.72;4864944;28;98500;-78
2023/08/08 02:58:53;;;;;;;;;;;;;;;13.92;48.05;100318.81;4905699;28;98072;-78
2023/08/08 03:01:21;;;;;;;;;;;;;;;13.91;47.85;100309.06;4902510;28;98749;-78
2023/08/08 03:03:49;;;;;;;;;;;;;;;13.90;47.46;100312.88;4870195;28;98293;-70
2023/08/08 03:06:16;;;;;;;;;;;;;;;13.89;47.57;100319.41;4904659;28;99503;-79
2023/08/08 03:08:42;;;;;;;;;;;;;;;13.88;47.47;100320.50;4898265;28;98634;-70
2023/08/08 03:11:08;;;;;;;;;;;;;;;13.84;47.73;100316.78;4867905;28;98235;-70
2023/08/08 03:13:37;;;;;;;;;;;;;;;13.85;47.51;100323.78;4917910;28;98085;-79
2023/08/08 03:16:03;;;;;;;;;;;;;;;13.83;47.53;100320.56;4895641;28;98119;-70
2023/08/08 03:18:29;;;;;;;;;;;;;;;13.81;47.56;100320.06;4925792;28;98515;-70
2023/08/08 03:20:56;;;;;;;;;;;;;;;13.80;47.72;100321.97;4895367;28;99717;-69
2023/08/08 03:23:23;;;;;;;;;;;;;;;13.77;47.77;100319.03;4886035;28;98388;-70
2023/08/08 03:25:49;;;;;;;;;;;;;;;13.78;47.46;100320.63;4894811;28;98516;-70
2023/08/08 03:28:16;;;;;;;;;;;;;;;13.73;47.54;100314.19;4901532;28;98009;-70
2023/08/08 03:30:43;;;;;;;;;;;;;;;13.73;47.68;100319.63;4890433;28;98541;-76
2023/08/08 03:33:11;;;;;;;;;;;;;;;13.72;47.91;100309.09;4922525;28;100396;-77
2023/08/08 03:35:38;;;;;;;;;;;;;;;13.70;47.89;100312.06;4898227;28;98856;-70
2023/08/08 03:38:04;;;;;;;;;;;;;;;13.70;47.53;100316.69;4921047;28;100553;-70
2023/08/08 03:40:31;;;;;;;;;;;;;;;13.69;47.47;100310.47;4886903;28;98381;-79
2023/08/08 03:42:57;;;;;;;;;;;;;;;13.69;47.92;100309.66;4866578;28;97984;-70
2023/08/08 03:45:24;;;;;;;;;;;;;;;13.67;47.54;100311.84;4899999;28;98028;-70
2023/08/08 03:47:50;;;;;;;;;;;;;;;13.65;47.51;100305.91;4899048;28;98291;-78
2023/08/08 03:50:17;;;;;;;;;;;;;;;13.65;47.92;100314.03;4883562;28;98073;-70
2023/08/08 03:52:43;;;;;;;;;;;;;;;13.66;47.81;100310.22;4903213;28;98157;-77
2023/08/08 03:55:10;;;;;;;;;;;;;;;13.67;47.56;100312.63;4900069;28;97974;-70
2023/08/08 03:57:37;;;;;;;;;;;;;;;13.65;47.86;100312.13;4867268;28;98698;-70
2023/08/08 04:00:07;;;;;;;;;;;;;;;13.66;47.80;100305.63;4908599;28;98723;-77
2023/08/08 04:02:33;;;;;;;;;;;;;;;13.67;47.57;100306.41;4911090;28;98560;-70
2023/08/08 04:04:59;;;;;;;;;;;;;;;13.68;47.49;100299.94;4898780;28;98118;-70
2023/08/08 04:07:26;;;;;;;;;;;;;;;13.68;47.45;100308.84;4898122;28;101136;-77
2023/08/08 04:09:53;;;;;;;;;;;;;;;13.70;47.80;100305.84;4901609;28;97913;-77
2023/08/08 04:12:20;;;;;;;;;;;;;;;13.70;47.79;100311.25;4925808;28;98333;-71
2023/08/08 04:14:47;;;;;;;;;;;;;;;13.70;47.75;100303.13;4918221;28;98258;-70
2023/08/08 04:17:14;;;;;;;;;;;;;;;13.72;47.37;100300.94;4917033;28;98413;-70
2023/08/08 04:19:40;;;;;;;;;;;;;;;13.72;47.39;100304.47;4888186;28;98690;-70
2023/08/08 04:22:07;;;;;;;;;;;;;;;13.74;47.35;100304.16;4866016;28;98163;-77
2023/08/08 04:24:34;;;;;;;;;;;;;;;13.78;47.34;100307.09;4888997;28;98219;-76
2023/08/08 04:27:03;;;;;;;;;;;;;;;13.81;47.68;100311.94;4888745;28;98162;-70
2023/08/08 04:29:30;;;;;;;;;;;;;;;13.84;47.27;100322.19;4921108;28;101252;-78
2023/08/08 04:31:56;;;;;;;;;;;;;;;13.86;47.52;100322.69;4919539;28;98235;-77
2023/08/08 04:34:22;;;;;;;;;;;;;;;13.89;47.69;100314.78;4906910;28;98260;-69
2023/08/08 04:36:49;;;;;;;;;;;;;;;13.92;47.58;100319.63;4917404;28;99403;-69
2023/08/08 04:39:15;;;;;;;;;;;;;;;13.92;47.59;100311.50;4922022;28;100208;-70
2023/08/08 04:41:41;;;;;;;;;;;;;;;13.94;47.60;100320.13;4913261;28;99135;-77
2023/08/08 04:44:08;;;;;;;;;;;;;;;13.97;47.67;100311.41;4921210;28;98857;-77
2023/08/08 04:46:34;;;;;;;;;;;;;;;14.00;47.34;100310.84;4921914;28;98662;-77
2023/08/08 04:49:01;;;;;;;;;;;;;;;14.03;47.32;100316.75;4907351;28;99437;-78
2023/08/08 04:51:27;;;;;;;;;;;;;;;14.11;47.24;100321.50;4918895;28;98386;-79
2023/08/08 04:53:54;;;;;;;;;;;;;;;14.16;47.39;100321.44;4910861;28;98175;-80
2023/08/08 04:56:20;;;;;;;;;;;;;;;14.20;47.40;100317.06;4903665;28;98205;-71
2023/08/08 04:58:47;;;;;;;;;;;;;;;14.23;47.33;100314.56;4901690;28;98060;-78
2023/08/08 05:01:17;;;;;;;;;;;;;;;14.24;47.37;100321.59;4922339;28;98281;-78
2023/08/08 05:03:44;;;;;;;;;;;;;;;14.25;47.05;100317.75;4906058;28;98669;-79
2023/08/08 05:06:10;;;;;;;;;;;;;;;14.29;47.14;100317.97;4896121;28;98378;-78
2023/08/08 05:08:36;;;;;;;;;;;;;;;14.30;46.98;100316.88;4919094;28;98532;-79
2023/08/08 05:11:03;;;;;;;;;;;;;;;14.35;47.44;100322.25;4897066;28;98420;-72
2023/08/08 05:13:29;;;;;;;;;;;;;;;14.39;47.34;100319.75;4908825;28;98435;-78
2023/08/08 05:15:55;;;;;;;;;;;;;;;14.43;47.24;100313.44;4922976;28;98155;-71
2023/08/08 05:18:22;;;;;;;;;;;;;;;14.49;47.13;100320.38;4888908;28;98292;-72
2023/08/08 05:20:49;;;;;;;;;;;;;;;14.55;46.88;100315.69;4865184;28;99040;-79
2023/08/08 05:23:15;;;;;;;;;;;;;;;14.64;46.86;100307.69;4896697;28;98051;-72
2023/08/08 05:25:41;;;;;;;;;;;;;;;14.75;47.05;100303.69;4899302;28;98070;-79
2023/08/08 05:28:08;;;;;;;;;;;;;;;14.88;46.73;100310.22;4910995;28;100067;-71
2023/08/08 05:30:35;;;;;;;;;;;;;;;15.09;46.34;100306.03;4900274;28;99512;-78
2023/08/08 05:33:01;;;;;;;;;;;;;;;15.40;46.38;100308.94;4901435;28;98429;-79
2023/08/08 05:35:27;;;;;;;;;;;;;;;15.75;45.97;100303.88;4902287;28;98190;-79
2023/08/08 05:37:53;;;;;;;;;;;;;;;16.07;45.86;100315.66;4896124;28;98500;-79
2023/08/08 05:40:20;;;;;;;;;;;;;;;16.08;46.11;100314.59;4889805;28;98260;-72
2023/08/08 05:42:46;;;;;;;;;;;;;;;16.04;46.15;100310.88;4885004;28;98451;-72
2023/08/08 05:45:13;;;;;;;;;;;;;;;16.08;46.22;100320.03;4905412;28;99331;-79
2023/08/08 05:47:40;;;;;;;;;;;;;;;16.12;46.35;100307.41;4870296;28;98269;-76
2023/08/08 05:50:08;;;;;;;;;;;;;;;16.13;46.31;100309.00;4898551;28;100640;-77
2023/08/08 05:52:34;;;;;;;;;;;;;;;16.12;46.39;100308.22;4869747;28;98059;-69
2023/08/08 05:55:02;;;;;;;;;;;;;;;16.12;46.48;100318.28;4862779;28;98376;-70
2023/08/08 05:57:29;;;;;;;;;;;;;;;16.31;46.20;100318.09;4893785;28;98232;-69
2023/08/08 05:59:55;;;;;;;;;;;;;;;16.64;45.90;100316.72;4867630;28;98250;-70
2023/08/08 06:02:22;;;;;;;;;;;;;;;16.81;45.86;100318.75;4894063;28;99238;-78
2023/08/08 06:04:48;;;;;;;;;;;;;;;16.90;45.65;100316.91;4914751;28;98267;-79
2023/08/08 06:07:16;;;;;;;;;;;;;;;17.06;45.75;100316.50;4882722;28;98324;-70
2023/08/08 06:09:43;;;;;;;;;;;;;;;16.86;46.03;100313.22;4899194;28;98660;-72
2023/08/08 06:12:10;;;;;;;;;;;;;;;16.78;46.21;100313.97;4868446;28;98670;-71
2023/08/08 06:14:36;;;;;;;;;;;;;;;16.80;46.22;100316.38;4904730;28;98262;-70
2023/08/08 06:17:03;;;;;;;;;;;;;;;16.79;46.38;100312.03;4882504;28;98251;-70
2023/08/08 06:19:29;;;;;;;;;;;;;;;16.90;46.19;100311.47;4884575;28;98738;-70
2023/08/08 06:21:58;;;;;;;;;;;;;;;17.14;45.80;100313.00;4870056;28;98265;-78
2023/08/08 06:24:24;;;;;;;;;;;;;;;17.26;45.76;100310.47;4915446;28;99394;-78
2023/08/08 06:26:51;;;;;;;;;;;;;;;17.33;45.93;100310.81;4888535;28;98196;-78
2023/08/08 06:29:17;;;;;;;;;;;;;;;17.47;45.65;100304.44;4890540;28;98883;-77
2023/08/08 06:31:44;;;;;;;;;;;;;;;17.47;45.82;100318.06;4911894;28;98135;-70
2023/08/08 06:34:10;;;;;;;;;;;;;;;17.45;45.89;100314.84;4892748;28;97994;-77
2023/08/08 06:36:37;;;;;;;;;;;;;;;17.41;46.10;100307.31;4872054;28;98323;-78
2023/08/08 06:39:05;;;;;;;;;;;;;;;17.34;45.95;100303.44;4889565;28;98941;-77
2023/08/08 06:41:32;;;;;;;;;;;;;;;17.29;46.29;100311.75;4900471;28;98082;-73
2023/08/08 06:43:59;;;;;;;;;;;;;;;17.18;46.28;100319.44;4880604;28;98486;-78
2023/08/08 06:46:25;;;;;;;;;;;;;;;17.07;46.41;100324.34;4914128;28;98641;-77
2023/08/08 06:48:56;;;;;;;;;;;;;;;17.00;46.43;100306.84;4865083;28;98491;-77
2023/08/08 06:51:23;;;;;;;;;;;;;;;16.93;46.50;100321.69;4900005;28;98418;-70
2023/08/08 06:53:50;;;;;;;;;;;;;;;16.91;46.53;100313.06;4892236;28;98350;-77
2023/08/08 06:56:17;;;;;;;;;;;;;;;16.87;46.43;100316.72;4893554;28;98112;-77
2023/08/08 06:58:44;;;;;;;;;;;;;;;16.81;46.59;100307.88;4897548;28;98184;-77
2023/08/08 07:01:10;;;;;;;;;;;;;;;16.76;46.74;100321.63;4930027;28;99189;-70
2023/08/08 07:03:37;;;;;;;;;;;;;;;16.78;46.69;100313.97;4900103;28;97981;-78
2023/08/08 07:06:04;;;;;;;;;;;;;;;16.81;46.62;100307.88;4916940;28;97961;-77
2023/08/08 07:08:30;;;;;;;;;;;;;;;16.80;46.57;100306.28;4904532;28;98101;-78
2023/08/08 07:10:59;;;;;;;;;;;;;;;16.77;46.51;100308.81;4884025;28;98085;-71
2023/08/08 07:13:26;;;;;;;;;;;;;;;16.75;46.54;100311.06;4915266;28;98478;-71
2023/08/08 07:15:53;;;;;;;;;;;;;;;16.73;46.65;100316.78;4882880;28;98254;-71
2023/08/08 07:18:20;;;;;;;;;;;;;;;16.82;46.65;100295.06;4900839;28;98199;-71
2023/08/08 07:20:46;;;;;;;;;;;;;;;16.89;46.39;100307.09;4899621;28;98422;-71
2023/08/08 07:23:13;;;;;;;;;;;;;;;16.98;46.58;100309.91;4900053;28;98386;-70
2023/08/08 07:25:40;;;;;;;;;;;;;;;17.11;46.10;100308.97;4897588;28;98471;-71
2023/08/08 07:28:06;;;;;;;;;;;;;;;17.18;46.23;100305.81;4897994;28;98399;-71
2023/08/08 07:30:34;;;;;;;;;;;;;;;17.19;46.28;100312.84;4876904;28;98669;-72
2023/08/08 07:33:04;;;;;;;;;;;;;;;17.17;46.30;100313.19;4880245;28;98167;-78
2023/08/08 07:35:33;;;;;;;;;;;;;;;17.21;46.27;100318.78;4897169;28;98485;-78
2023/08/08 07:38:00;;;;;;;;;;;;;;;17.23;46.11;100315.75;4869702;28;98843;-78
2023/08/08 07:40:27;;;;;;;;;;;;;;;17.25;46.18;100316.22;4899229;28;98568;-71
2023/08/08 07:42:54;;;;;;;;;;;;;;;17.28;46.22;100313.69;4898712;28;98342;-78
2023/08/08 07:45:21;;;;;;;;;;;;;;;17.29;46.20;100312.56;4898559;28;98528;-77
2023/08/08 07:47:47;;;;;;;;;;;;;;;17.32;46.26;100306.47;4862625;28;98124;-71
2023/08/08 07:50:14;;;;;;;;;;;;;;;17.31;46.15;100313.06;4898351;28;98561;-78
2023/08/08 07:52:41;;;;;;;;;;;;;;;17.34;46.18;100317.06;4899061;28;98593;-71
2023/08/08 07:55:08;;;;;;;;;;;;;;;17.37;46.09;100319.16;4862610;28;98884;-71
2023/08/08 07:57:34;;;;;;;;;;;;;;;17.43;45.99;100321.41;4870873;28;98568;-78
2023/08/08 08:00:11;;;;;;;;;;;;;;;17.57;45.98;100312.34;4913027;28;99132;-78
2023/08/08 08:02:38;;;;;;;;;;;;;;;17.65;45.93;100317.78;4877368;28;98836;-71
2023/08/08 08:05:07;;;;;;;;;;;;;;;17.71;45.90;100317.63;4901539;28;98641;-78
2023/08/08 08:07:34;;;;;;;;;;;;;;;17.75;45.82;100311.25;4917796;28;98454;-70
2023/08/08 08:10:04;;;;;;;;;;;;;;;17.83;45.81;100309.66;4885905;28;99400;-79
2023/08/08 08:12:30;;;;;;;;;;;;;;;17.91;45.87;100303.41;4898307;28;98237;-70
2023/08/08 08:14:58;;;;;;;;;;;;;;;18.03;45.78;100303.56;4883573;28;98146;-78
2023/08/08 08:17:24;;;;;;;;;;;;;;;18.03;45.66;100297.31;4888537;28;99201;-72
2023/08/08 08:19:54;;;;;;;;;;;;;;;18.09;45.64;100296.03;4884581;28;98938;-70
2023/08/08 08:22:21;;;;;;;;;;;;;;;18.16;45.59;100296.38;4880923;28;98661;-71
2023/08/08 08:24:47;;;;;;;;;;;;;;;18.31;45.36;100304.06;4913339;28;98176;-78
2023/08/08 08:27:13;;;;;;;;;;;;;;;18.43;45.37;100305.28;4920550;28;115265;-70
2023/08/08 08:29:40;;;;;;;;;;;;;;;18.44;45.53;100309.66;4885712;28;98300;-71
2023/08/08 08:32:07;;;;;;;;;;;;;;;18.55;45.46;100302.69;4894770;28;98341;-78
2023/08/08 08:34:34;;;;;;;;;;;;;;;18.76;45.32;100305.59;4902331;28;98450;-70
2023/08/08 08:37:02;;;;;;;;;;;;;;;18.98;45.30;100294.44;4887181;28;98378;-80
2023/08/08 08:39:29;;;;;;;;;;;;;;;19.26;44.72;100292.06;4917151;28;102001;-78
2023/08/08 08:42:04;;;;;;;;;;;;;;;19.52;44.57;100296.56;4899615;28;98685;-69
2023/08/08 08:44:31;;;;;;;;;;;;;;;19.40;44.94;100294.53;4902798;28;98493;-78
2023/08/08 08:47:01;;;;;;;;;;;;;;;19.33;45.13;100286.03;4888649;28;98174;-79
2023/08/08 08:49:29;;;;;;;;;;;;;;;19.18;45.30;100287.44;4891321;28;98491;-79
2023/08/08 08:51:56;;;;;;;;;;;;;;;19.13;45.52;100291.13;4918665;28;98981;-70
2023/08/08 08:54:24;;;;;;;;;;;;;;;19.19;45.42;100280.84;4893145;28;99244;-71
2023/08/08 08:56:53;;;;;;;;;;;;;;;19.48;44.87;100288.22;4890063;28;98574;-78
2023/08/08 08:59:19;;;;;;;;;;;;;;;19.81;44.65;100288.34;4894558;28;98362;-79
2023/08/08 09:01:46;;;;;;;;;;;;;;;19.95;44.73;100284.53;4912736;28;98674;-79
2023/08/08 09:04:13;;;;;;;;;;;;;;;20.02;44.68;100288.34;4882991;28;98710;-71
2023/08/08 09:06:39;;;;;;;;;;;;;;;20.06;44.76;100286.53;4908116;28;98908;-76
2023/08/08 09:09:06;;;;;;;;;;;;;;;20.43;44.45;100294.88;4915348;28;98660;-78
2023/08/08 09:11:35;;;;;;;;;;;;;;;20.82;44.06;100290.75;4901171;28;98294;-71
2023/08/08 09:14:02;;;;;;;;;;;;;;;21.23;43.81;100283.50;4903202;28;99155;-78
2023/08/08 09:16:30;;;;;;;;;;;;;;;21.95;43.34;100291.16;4900478;28;98105;-77
2023/08/08 09:18:58;;;;;;;;;;;;;;;21.89;43.71;100289.81;4902233;28;98336;-68
2023/08/08 09:21:25;;;;;;;;;;;;;;;23.14;42.24;100279.44;4888283;28;99789;-69
2023/08/08 09:23:52;;;;;;;;;;;;;;;23.92;41.40;100281.22;4885641;28;98289;-79
2023/08/08 09:26:19;;;;;;;;;;;;;;;23.40;42.76;100296.16;4886298;28;100487;-79
2023/08/08 09:28:46;;;;;;;;;;;;;;;25.58;40.37;100274.66;4916801;28;98546;-70
2023/08/08 09:31:13;;;;;;;;;;;;;;;27.14;39.35;100277.56;4865685;28;98714;-78
2023/08/08 09:33:43;;;;;;;;;;;;;;;27.64;39.41;100284.22;4918314;28;98805;-70
2023/08/08 09:36:19;;;;;;;;;;;;;;;26.71;41.17;100291.00;4896962;28;98371;-78
2023/08/08 09:38:45;;;;;;;;;;;;;;;25.75;42.48;100287.91;4885378;28;98299;-70
2023/08/08 09:41:14;;;;;;;;;;;;;;;25.01;43.62;100290.31;4898361;28;97977;-69
2023/08/08 09:43:43;;;;;;;;;;;;;;;24.36;44.24;100296.63;4915391;28;98600;-68
2023/08/08 09:46:09;;;;;;;;;;;;;;;23.82;44.39;100306.56;4905058;28;98704;-78
2023/08/08 09:48:36;;;;;;;;;;;;;;;23.36;44.77;100297.25;4901853;28;98307;-79
2023/08/08 09:51:04;;;;;;;;;;;;;;;22.88;45.16;100291.75;4909367;28;98458;-69
2023/08/08 09:53:31;;;;;;;;;;;;;;;22.45;45.36;100298.09;4899622;28;104019;-69
2023/08/08 09:55:58;;;;;;;;;;;;;;;22.04;45.80;100291.81;4897671;28;99559;-79
2023/08/08 09:58:26;;;;;;;;;;;;;;;21.76;45.88;100289.03;4882927;28;98618;-69
2023/08/08 10:00:53;;;;;;;;;;;;;;;21.57;45.76;100286.91;4897684;28;98398;-79
2023/08/08 10:03:20;;;;;;;;;;;;;;;21.33;46.20;100294.00;4885401;28;98253;-69
2023/08/08 10:05:46;;;;;;;;;;;;;;;21.11;46.06;100288.19;4866618;28;98461;-79
2023/08/08 10:08:16;;;;;;;;;;;;;;;20.93;46.07;100285.66;4914622;28;98176;-77
2023/08/08 10:10:44;;;;;;;;;;;;;;;20.76;46.15;100294.09;4900742;28;100271;-79
2023/08/08 10:13:18;;;;;;;;;;;;;;;20.58;46.18;100290.72;4862181;28;101024;-69
2023/08/08 10:15:46;;;;;;;;;;;;;;;20.41;46.16;100280.72;4894892;28;98487;-78
2023/08/08 10:18:13;;;;;;;;;;;;;;;20.28;46.10;100279.09;4862145;28;98272;-69
2023/08/08 10:20:42;;;;;;;;;;;;;;;20.12;46.21;100281.63;4912812;28;98817;-68
2023/08/08 10:23:09;;;;;;;;;;;;;;;20.00;46.24;100282.41;4881820;28;98371;-68
2023/08/08 10:25:36;;;;;;;;;;;;;;;19.92;46.36;100279.72;4902050;28;98157;-68
2023/08/08 10:28:10;;;;;;;;;;;;;;;19.81;46.24;100276.63;4915008;28;98317;-78
2023/08/08 10:30:44;;;;;;;;;;;;;;;19.67;46.32;100287.00;4919246;28;98784;-78
2023/08/08 10:33:20;;;;;;;;;;;;;;;19.62;46.36;100279.81;4883002;28;99470;-68
2023/08/08 10:36:03;;;;;;;;;;;;;;;19.66;46.25;100275.28;4910722;28;98617;-69
2023/08/08 10:38:50;;;;;;;;;;;;;;;19.70;45.97;100265.28;4863928;28;98323;-78
2023/08/08 10:41:27;;;;;;;;;;;;;;;19.71;46.04;100277.00;4894097;28;98398;-78
2023/08/08 10:43:56;;;;;;;;;;;;;;;19.75;45.98;100270.53;4881960;28;98646;-78
2023/08/08 10:46:31;;;;;;;;;;;;;;;19.85;45.86;100277.53;4898047;28;98162;-69
2023/08/08 10:49:05;;;;;;;;;;;;;;;19.99;45.56;100280.00;4900176;28;98690;-78
2023/08/08 10:51:39;;;;;;;;;;;;;;;20.16;45.30;100277.13;4882169;28;98197;-70
2023/08/08 10:54:14;;;;;;;;;;;;;;;20.34;45.12;100269.53;4895579;28;98925;-69
2023/08/08 10:56:41;;;;;;;;;;;;;;;20.51;44.99;100274.03;4898216;28;98428;-78
2023/08/08 10:59:22;;;;;;;;;;;;;;;20.69;44.95;100270.00;4899491;28;98162;-69
2023/08/08 11:01:50;;;;;;;;;;;;;;;20.87;44.66;100264.28;4914713;28;98018;-79
2023/08/08 11:04:20;;;;;;;;;;;;;;;21.04;44.54;100255.88;4896574;28;98320;-70
2023/08/08 11:06:49;;;;;;;;;;;;;;;21.15;44.58;100261.69;4890422;28;98219;-79
2023/08/08 11:09:17;;;;;;;;;;;;;;;21.29;44.50;100259.38;4901313;28;98695;-69
2023/08/08 11:11:44;;;;;;;;;;;;;;;21.46;44.33;100248.22;4886548;28;98263;-69
2023/08/08 11:14:17;;;;;;;;;;;;;;;21.76;43.96;100248.69;4899123;28;99681;-69
2023/08/08 11:16:46;;;;;;;;;;;;;;;22.17;43.76;100251.44;4914315;28;113347;-79
2023/08/08 11:19:14;;;;;;;;;;;;;;;23.12;42.74;100241.31;4912261;28;98362;-79
2023/08/08 11:21:41;;;;;;;;;;;;;;;23.54;42.32;100232.44;4884859;28;99816;-79
2023/08/08 11:24:08;;;;;;;;;;;;;;;23.55;42.62;100239.53;4901250;28;98646;-79
2023/08/08 11:26:36;;;;;;;;;;;;;;;24.37;42.05;100235.69;4899236;28;98049;-76
2023/08/08 11:29:08;;;;;;;;;;;;;;;25.67;40.70;100228.28;4911106;28;98374;-70
2023/08/08 11:31:38;;;;;;;;;;;;;;;25.96;40.77;100226.66;4909370;28;98768;-69
2023/08/08 11:34:07;;;;;;;;;;;;;;;25.82;41.34;100219.03;4901150;28;98651;-78
2023/08/08 11:36:35;;;;;;;;;;;;;;;26.98;40.27;100207.88;4894429;28;98711;-71
2023/08/08 11:39:11;;;;;;;;;;;;;;;26.78;40.88;100216.44;4900937;28;98542;-78
2023/08/08 11:41:38;;;;;;;;;;;;;;;26.98;41.16;100205.91;4887624;28;99991;-78
2023/08/08 11:44:05;;;;;;;;;;;;;;;25.70;42.79;100206.25;4879002;28;98932;-71
2023/08/08 11:46:32;;;;;;;;;;;;;;;25.30;43.03;100204.13;4896820;28;99241;-70
2023/08/08 11:49:06;;;;;;;;;;;;;;;25.03;43.37;100205.28;4867755;28;99954;-69
2023/08/08 11:51:37;;;;;;;;;;;;;;;24.55;43.58;100208.47;4866954;28;98211;-70
2023/08/08 11:54:04;;;;;;;;;;;;;;;24.36;43.56;100203.78;4882882;28;98803;-69
2023/08/08 11:56:32;;;;;;;;;;;;;;;25.16;42.70;100190.94;4867933;28;99828;-79
2023/08/08 11:58:59;;;;;;;;;;;;;;;25.97;41.79;100202.63;4902851;28;98156;-71
2023/08/08 12:01:26;;;;;;;;;;;;;;;27.11;40.73;100209.19;4913395;28;100046;-78
2023/08/08 12:03:55;;;;;;;;;;;;;;;27.24;40.73;100209.69;4898317;28;98453;-79
2023/08/08 12:06:21;;;;;;;;;;;;;;;28.03;40.42;100199.75;4889222;28;98077;-70
2023/08/08 12:08:48;;;;;;;;;;;;;;;28.61;39.89;100201.41;4880454;28;98299;-79
2023/08/08 12:11:15;;;;;;;;;;;;;;;28.71;40.16;100206.16;4860121;28;98972;-79
2023/08/08 12:13:45;;;;;;;;;;;;;;;27.68;41.54;100197.63;4892061;28;98249;-78
2023/08/08 12:16:12;;;;;;;;;;;;;;;27.46;42.03;100191.97;4894286;28;99276;-78
2023/08/08 12:18:39;;;;;;;;;;;;;;;26.99;42.37;100190.13;4862672;28;98809;-69
2023/08/08 12:21:07;;;;;;;;;;;;;;;26.93;42.48;100198.00;4892529;28;98684;-79
2023/08/08 12:23:34;;;;;;;;;;;;;;;26.72;42.66;100184.78;4893786;28;98140;-71
2023/08/08 12:26:04;;;;;;;;;;;;;;;26.82;42.58;100188.81;4907109;28;98392;-78
2023/08/08 12:28:31;;;;;;;;;;;;;;;26.81;42.42;100193.56;4899960;28;98592;-69
2023/08/08 12:30:58;;;;;;;;;;;;;;;27.60;41.34;100189.28;4879906;28;98213;-78
2023/08/08 12:33:24;;;;;;;;;;;;;;;28.04;41.27;100188.25;4894950;28;99481;-70
2023/08/08 12:35:51;;;;;;;;;;;;;;;28.34;41.18;100179.59;4905428;28;99561;-71
2023/08/08 12:38:17;;;;;;;;;;;;;;;28.68;40.72;100168.13;4897548;28;98661;-78